Time;durP1;ratioP1;P1;durP2;ratioP2;P2;SDS_P1;SDS_P2;PMS_P1;PMS_P2;Temp;Humidity;BMP_temperature;BMP_pressure;BME280_temperature;BME280_humidity;BME280_pressure;Samples;Min_cycle;Max_cycle;Signal;HPM_P1;HPM_P2
2022/02/03 00:02:30;;;;;;;19.53;8.47;;;1.20;99.90;;;;;;5076100;28;20053;-75
2022/02/03 00:05:03;;;;;;;30.53;9.70;;;1.20;99.90;;;;;;5075231;28;20056;-77
2022/02/03 00:07:40;;;;;;;24.70;8.73;;;1.20;99.90;;;;;;5075588;28;20059;-75
2022/02/03 00:27:00;;;;;;;24.13;8.23;;;1.30;99.90;;;;;;5059294;28;20084;-75
2022/02/03 00:29:46;;;;;;;25.43;9.37;;;1.20;99.90;;;;;;5075555;28;20057;-77
2022/02/03 00:32:38;;;;;;;27.43;8.27;;;1.30;99.90;;;;;;5075355;28;20052;-76
2022/02/03 00:35:25;;;;;;;21.83;7.53;;;1.30;99.90;;;;;;5074613;28;20286;-74
2022/02/03 00:38:16;;;;;;;27.80;8.17;;;1.40;99.90;;;;;;5074858;28;20504;-76
2022/02/03 00:49:03;;;;;;;22.83;8.33;;;1.20;99.90;;;;;;5074669;28;20412;-76
2022/02/03 00:51:32;;;;;;;22.90;7.23;;;1.30;99.90;;;;;;5074991;28;20056;-75
2022/02/03 00:53:59;;;;;;;27.27;8.53;;;1.30;99.90;;;;;;5074689;28;20052;-73
2022/02/03 00:56:34;;;;;;;25.37;7.50;;;1.30;99.90;;;;;;5074907;28;20052;-73
2022/02/03 00:59:05;;;;;;;25.77;8.27;;;1.20;99.90;;;;;;5074588;28;20548;-73
2022/02/03 01:01:35;;;;;;;23.90;7.93;;;1.30;99.90;;;;;;5074366;28;20131;-76
2022/02/03 01:04:05;;;;;;;23.27;7.73;;;1.20;99.90;;;;;;5074494;28;20044;-74
2022/02/03 01:06:36;;;;;;;28.00;7.63;;;1.20;99.90;;;;;;5074875;28;20113;-76
2022/02/03 01:09:07;;;;;;;26.60;8.70;;;1.30;99.90;;;;;;5075034;28;20118;-73
2022/02/03 01:11:38;;;;;;;27.50;8.77;;;1.30;99.90;;;;;;5074460;28;20527;-73
2022/02/03 01:14:10;;;;;;;27.33;8.30;;;1.40;99.90;;;;;;5075152;28;20473;-73
2022/02/03 01:16:58;;;;;;;28.77;8.53;;;1.40;99.90;;;;;;5074524;28;20619;-73
2022/02/03 01:19:48;;;;;;;22.00;8.85;;;1.40;99.90;;;;;;5074321;28;20372;-74
2022/02/03 01:33:42;;;;;;;25.53;8.43;;;1.40;99.90;;;;;;5074168;28;20055;-75
2022/02/03 01:44:48;;;;;;;27.10;10.50;;;1.50;99.90;;;;;;5078323;28;20060;-74
2022/02/03 01:47:29;;;;;;;22.13;7.53;;;1.60;99.90;;;;;;5077515;28;20122;-74
2022/02/03 01:52:49;;;;;;;19.73;8.30;;;1.60;99.90;;;;;;5077873;28;20051;-75
2022/02/03 01:55:20;;;;;;;26.40;9.33;;;1.60;99.90;;;;;;5077640;28;20128;-75
2022/02/03 01:57:57;;;;;;;27.23;8.43;;;1.60;99.90;;;;;;5077840;28;20082;-75
2022/02/03 02:00:26;;;;;;;32.47;10.10;;;1.50;99.90;;;;;;5077741;28;20539;-75
2022/02/03 02:03:08;;;;;;;29.17;9.97;;;1.50;99.90;;;;;;5077864;28;20084;-75
2022/02/03 02:05:54;;;;;;;29.10;10.00;;;1.60;99.90;;;;;;5076886;28;20048;-74
2022/02/03 02:08:32;;;;;;;33.43;9.90;;;1.60;99.90;;;;;;5077254;28;20079;-75
2022/02/03 02:11:23;;;;;;;35.20;13.03;;;1.50;99.90;;;;;;5077049;28;20491;-75
2022/02/03 02:14:10;;;;;;;31.30;10.73;;;1.50;99.90;;;;;;5077210;28;20109;-75
2022/02/03 02:19:28;;;;;;;27.60;10.37;;;1.60;99.90;;;;;;5076745;28;20055;-74
2022/02/03 02:39:10;;;;;;;31.40;10.90;;;1.70;99.90;;;;;;5077136;28;20093;-75
2022/02/03 02:44:47;;;;;;;42.83;11.43;;;1.80;99.90;;;;;;5076781;28;20447;-74
2022/02/03 02:47:23;;;;;;;35.67;10.47;;;1.80;99.90;;;;;;5076267;28;20109;-73
2022/02/03 02:50:04;;;;;;;42.22;9.10;;;1.80;99.90;;;;;;5077257;28;20049;-73
2022/02/03 02:52:41;;;;;;;28.70;9.27;;;1.80;99.90;;;;;;5077052;28;20052;-74
2022/02/03 02:55:21;;;;;;;31.50;11.47;;;1.80;99.90;;;;;;5076210;28;20051;-74
2022/02/03 02:58:12;;;;;;;38.33;10.33;;;1.80;99.90;;;;;;5077273;28;20057;-73
2022/02/03 03:03:49;;;;;;;34.80;10.37;;;1.80;99.90;;;;;;5076756;28;20071;-74
2022/02/03 03:29:13;;;;;;;26.73;7.77;;;2.40;99.90;;;;;;5075918;28;20522;-74
2022/02/03 03:32:12;;;;;;;30.73;7.90;;;2.50;99.90;;;;;;5076000;28;20052;-73
2022/02/03 03:35:10;;;;;;;27.83;8.77;;;2.50;99.90;;;;;;5075801;28;20475;-74
2022/02/03 03:37:44;;;;;;;;;;;2.40;99.90;;;;;;5076329;28;20051;-75
2022/02/03 03:40:12;;;;;;;30.23;8.67;;;2.50;99.90;;;;;;5075314;28;19921;-75
2022/02/03 03:42:45;;;;;;;31.43;8.57;;;2.40;99.90;;;;;;5075554;28;20048;-75
2022/02/03 03:45:13;;;;;;;29.60;8.33;;;2.40;99.90;;;;;;5075467;28;20128;-75
2022/02/03 03:47:44;;;;;;;28.83;9.53;;;2.50;99.90;;;;;;5075293;28;20108;-75
2022/02/03 03:50:15;;;;;;;31.03;7.77;;;2.40;99.90;;;;;;5075381;28;20083;-75
2022/02/03 03:52:51;;;;;;;30.17;8.20;;;2.50;99.90;;;;;;5075715;28;20052;-75
2022/02/03 03:55:30;;;;;;;28.48;8.32;;;2.50;99.90;;;;;;5075668;28;20056;-75
2022/02/03 03:58:20;;;;;;;27.70;8.50;;;2.50;99.90;;;;;;5075986;28;20095;-75
2022/02/03 04:28:41;;;;;;;32.30;8.80;;;2.40;99.90;;;;;;5074453;28;20092;-75
2022/02/03 04:33:38;;;;;;;26.53;8.33;;;2.50;99.90;;;;;;5052941;28;20493;-74
2022/02/03 04:42:27;;;;;;;29.53;9.77;;;2.50;99.90;;;;;;5048123;28;20123;-75
2022/02/03 04:51:39;;;;;;;;;;;2.60;99.90;;;;;;4988045;28;20042;-75
2022/02/03 05:03:54;;;;;;;32.33;8.20;;;2.60;99.90;;;;;;5068468;28;20052;-76
2022/02/03 05:06:42;;;;;;;29.53;8.93;;;2.60;99.90;;;;;;5074604;28;20412;-75
2022/02/03 05:09:24;;;;;;;;;;;2.60;99.90;;;;;;5074565;28;20060;-74
2022/02/03 05:12:17;;;;;;;27.50;8.27;;;2.60;99.90;;;;;;5074050;28;19963;-75
2022/02/03 05:21:25;;;;;;;22.73;7.70;;;2.60;99.90;;;;;;5064707;28;19920;-75
2022/02/03 05:24:35;;;;;;;33.03;9.83;;;2.60;99.90;;;;;;5072636;28;20048;-75
2022/02/03 05:42:24;;;;;;;39.60;9.83;;;2.70;99.90;;;;;;5073689;28;19942;-75
2022/02/03 05:45:26;;;;;;;31.67;9.63;;;2.80;99.90;;;;;;5073370;28;20090;-74
2022/02/03 05:48:20;;;;;;;33.47;9.80;;;2.80;99.90;;;;;;5073907;28;20155;-75
2022/02/03 05:51:13;;;;;;;31.50;10.13;;;2.80;99.90;;;;;;5073493;28;20311;-75
2022/02/03 06:02:34;;;;;;;30.63;11.40;;;3.00;99.90;;;;;;5073328;28;20078;-75
2022/02/03 06:05:06;;;;;;;38.70;10.53;;;2.90;99.90;;;;;;5072366;28;20048;-75
2022/02/03 06:13:12;;;;;;;35.73;12.17;;;3.00;99.90;;;;;;5072783;28;20048;-75
2022/02/03 06:15:46;;;;;;;38.57;13.03;;;3.00;99.90;;;;;;5072778;28;20045;-75
2022/02/03 06:23:47;;;;;;;34.63;12.37;;;3.00;99.90;;;;;;5074960;28;20048;-74
2022/02/03 06:29:01;;;;;;;33.63;11.93;;;3.10;99.90;;;;;;5076872;28;20342;-75
2022/02/03 06:31:29;;;;;;;40.10;13.37;;;3.10;99.90;;;;;;5076472;28;20500;-75
2022/02/03 06:33:57;;;;;;;47.47;14.33;;;3.10;99.90;;;;;;5076071;28;20098;-74
2022/02/03 06:36:24;;;;;;;37.87;13.17;;;3.10;99.90;;;;;;5076296;28;20135;-76
2022/02/03 06:38:51;;;;;;;44.07;13.40;;;3.10;99.90;;;;;;5075849;28;20044;-74
2022/02/03 06:41:18;;;;;;;44.77;13.83;;;3.20;99.90;;;;;;5075839;28;20140;-74
2022/02/03 06:43:45;;;;;;;49.47;13.73;;;3.10;99.90;;;;;;5076147;28;20072;-75
2022/02/03 06:46:13;;;;;;;45.97;14.73;;;3.20;99.90;;;;;;5076205;28;20044;-78
2022/02/03 06:48:48;;;;;;;38.37;13.70;;;3.10;99.90;;;;;;5076205;28;20083;-76
2022/02/03 06:51:20;;;;;;;40.20;14.80;;;3.20;99.90;;;;;;5075832;28;20052;-76
2022/02/03 06:53:52;;;;;;;46.17;15.20;;;3.20;99.90;;;;;;5075510;28;20519;-75
2022/02/03 06:56:30;;;;;;;41.83;15.83;;;3.20;99.90;;;;;;5076512;28;20417;-75
2022/02/03 06:59:00;;;;;;;45.50;16.23;;;3.20;99.90;;;;;;5076224;28;20135;-75
2022/02/03 07:01:31;;;;;;;43.27;15.47;;;3.20;99.90;;;;;;5076313;28;20059;-80
2022/02/03 07:04:03;;;;;;;44.50;16.33;;;3.30;99.90;;;;;;5076549;28;20570;-75
2022/02/03 07:06:31;;;;;;;38.13;14.23;;;3.20;99.90;;;;;;5078890;28;20060;-76
2022/02/03 07:09:05;;;;;;;45.40;15.43;;;3.20;99.90;;;;;;5078255;28;20056;-75
2022/02/03 07:11:32;;;;;;;46.33;16.70;;;3.20;99.90;;;;;;5076956;28;20057;-74
2022/02/03 07:13:59;;;;;;;52.80;16.53;;;3.20;99.90;;;;;;5076277;28;20126;-74
2022/02/03 07:16:27;;;;;;;46.30;15.53;;;3.30;99.90;;;;;;5077097;28;20098;-78
2022/02/03 07:18:54;;;;;;;47.20;15.33;;;3.30;99.90;;;;;;5076835;28;20070;-75
2022/02/03 07:21:22;;;;;;;43.70;17.20;;;3.20;99.90;;;;;;5077393;28;20049;-76
2022/02/03 07:23:49;;;;;;;45.03;17.27;;;3.30;99.90;;;;;;5076003;28;20135;-75
2022/02/03 07:26:16;;;;;;;50.53;16.50;;;3.30;99.90;;;;;;5075188;28;20080;-75
2022/02/03 07:28:43;;;;;;;44.37;16.17;;;3.30;99.90;;;;;;5076087;28;20052;-77
2022/02/03 07:31:10;;;;;;;52.37;16.37;;;3.30;99.90;;;;;;5075518;28;20132;-76
2022/02/03 07:33:37;;;;;;;58.90;17.43;;;3.40;99.90;;;;;;5075511;28;20048;-75
2022/02/03 07:36:04;;;;;;;48.30;15.33;;;3.40;99.90;;;;;;5075373;28;20462;-74
2022/02/03 07:38:33;;;;;;;49.57;18.57;;;3.40;99.90;;;;;;5075444;28;20106;-74
2022/02/03 07:41:00;;;;;;;54.10;16.60;;;3.40;99.90;;;;;;5075178;28;20057;-75
2022/02/03 07:43:27;;;;;;;54.97;17.53;;;3.50;99.90;;;;;;5074942;28;20101;-75
2022/02/03 07:45:54;;;;;;;60.83;18.43;;;3.50;99.90;;;;;;5075649;28;20040;-75
2022/02/03 07:48:21;;;;;;;60.17;18.73;;;3.50;99.90;;;;;;5075594;28;20048;-79
2022/02/03 07:50:48;;;;;;;58.27;18.30;;;3.50;99.90;;;;;;5075507;28;20048;-75
2022/02/03 07:53:15;;;;;;;53.63;17.73;;;3.50;99.90;;;;;;5075599;28;20049;-79
2022/02/03 07:55:43;;;;;;;59.10;18.30;;;3.60;99.90;;;;;;5075563;28;20088;-75
2022/02/03 07:58:10;;;;;;;48.83;17.63;;;3.70;99.90;;;;;;5075032;28;20140;-76
2022/02/03 08:00:37;;;;;;;55.60;19.00;;;3.70;99.90;;;;;;5074516;28;20084;-75
2022/02/03 08:03:10;;;;;;;50.30;19.00;;;3.70;99.90;;;;;;5074452;28;20584;-76
2022/02/03 08:05:38;;;;;;;69.27;19.80;;;3.70;99.90;;;;;;5074660;28;20078;-75
2022/02/03 08:08:12;;;;;;;55.93;18.30;;;3.80;99.90;;;;;;5074290;28;20052;-76
2022/02/03 08:10:43;;;;;;;53.07;19.00;;;3.70;99.90;;;;;;5074064;28;20454;-75
2022/02/03 08:13:18;;;;;;;55.47;18.87;;;3.80;99.90;;;;;;5074121;28;20530;-78
2022/02/03 08:15:45;;;;;;;49.90;16.93;;;3.80;99.90;;;;;;5074570;28;20143;-75
2022/02/03 08:18:17;;;;;;;52.33;19.10;;;3.80;99.90;;;;;;5073995;28;20052;-75
2022/02/03 08:20:50;;;;;;;48.90;17.87;;;3.90;99.90;;;;;;5073614;28;20055;-75
2022/02/03 08:23:42;;;;;;;52.27;19.03;;;3.90;99.90;;;;;;5073979;28;20106;-79
2022/02/03 08:26:18;;;;;;;52.63;18.17;;;4.00;99.90;;;;;;5073618;28;20048;-75
2022/02/03 08:29:14;;;;;;;46.97;18.40;;;4.00;99.90;;;;;;5074466;28;20079;-74
2022/02/03 08:31:50;;;;;;;47.47;19.23;;;4.00;99.90;;;;;;5074323;28;20094;-75
2022/02/03 08:34:23;;;;;;;48.70;17.80;;;4.10;99.90;;;;;;5073949;28;20066;-74
2022/02/03 08:36:49;;;;;;;50.23;18.67;;;4.20;99.90;;;;;;5073768;28;20052;-75
2022/02/03 08:39:20;;;;;;;57.73;19.17;;;4.20;99.90;;;;;;5073752;28;20516;-74
2022/02/03 08:41:47;;;;;;;50.40;19.10;;;4.20;99.90;;;;;;5073409;28;20147;-75
2022/02/03 08:44:15;;;;;;;53.85;19.13;;;4.30;99.90;;;;;;5073509;28;20087;-74
2022/02/03 08:46:42;;;;;;;52.55;18.50;;;4.30;99.90;;;;;;5072720;28;20500;-74
2022/02/03 08:49:09;;;;;;;45.55;18.75;;;4.30;99.90;;;;;;5073349;28;20131;-73
2022/02/03 08:51:36;;;;;;;46.45;17.98;;;4.30;99.90;;;;;;5073598;28;20056;-74
2022/02/03 08:54:08;;;;;;;50.67;20.53;;;4.40;99.90;;;;;;5073201;28;20185;-79
2022/02/03 08:56:43;;;;;;;52.42;19.40;;;4.40;99.90;;;;;;5073306;28;20052;-74
2022/02/03 09:35:42;;;;;;;52.72;18.10;;;5.00;99.90;;;;;;5074003;28;20055;-75
2022/02/03 09:57:44;;;;;;;57.07;20.40;;;5.10;99.90;;;;;;5067509;28;20403;-74
2022/02/03 10:00:35;;;;;;;64.73;20.53;;;5.10;99.90;;;;;;5078542;28;20052;-76
2022/02/03 10:03:06;;;;;;;58.53;18.43;;;5.10;99.90;;;;;;5078003;28;20048;-75
2022/02/03 10:05:37;;;;;;;66.07;21.67;;;5.10;99.90;;;;;;5078014;28;20048;-75
2022/02/03 10:08:11;;;;;;;72.13;22.35;;;5.20;99.90;;;;;;5077994;28;20048;-75
2022/02/03 10:10:38;;;;;;;70.67;22.63;;;5.20;99.90;;;;;;5077934;28;20080;-76
2022/02/03 10:13:16;;;;;;;63.05;22.55;;;5.30;99.90;;;;;;5078213;28;20080;-75
2022/02/03 10:15:43;;;;;;;65.85;22.23;;;5.30;99.90;;;;;;5077370;28;20057;-76
2022/02/03 10:18:22;;;;;;;68.45;23.63;;;5.50;99.90;;;;;;5077444;28;20131;-76
2022/02/03 10:20:49;;;;;;;66.20;23.65;;;5.60;99.90;;;;;;5077512;28;20048;-77
2022/02/03 10:23:22;;;;;;;61.72;20.98;;;5.70;99.90;;;;;;5076669;28;20512;-78
2022/02/03 10:25:53;;;;;;;67.07;21.70;;;5.80;99.90;;;;;;5076538;28;20571;-76
2022/02/03 10:28:20;;;;;;;59.58;21.60;;;6.00;99.90;;;;;;5076157;28;20071;-75
2022/02/03 10:30:50;;;;;;;61.22;22.67;;;6.10;99.90;;;;;;5076708;28;20509;-80
2022/02/03 10:33:19;;;;;;;63.42;22.02;;;6.10;99.90;;;;;;5076705;28;20071;-80
2022/02/03 10:35:49;;;;;;;65.10;20.92;;;6.40;99.90;;;;;;5076156;28;20071;-77
2022/02/03 10:41:37;;;;;;;54.70;20.45;;;6.40;99.90;;;;;;5076695;28;20052;-74
2022/02/03 10:44:36;;;;;;;55.35;20.63;;;6.30;99.90;;;;;;5075893;28;20139;-79
2022/02/03 10:50:17;;;;;;;56.95;20.83;;;6.40;99.90;;;;;;5073870;28;20429;-75
2022/02/03 10:53:06;;;;;;;59.50;20.63;;;6.40;99.90;;;;;;5075838;28;20504;-76
2022/02/03 10:55:59;;;;;;;49.90;19.50;;;6.30;99.90;;;;;;5075791;28;20044;-76
2022/02/03 11:01:33;;;;;;;49.78;20.40;;;6.60;99.90;;;;;;5076295;28;20055;-75
2022/02/03 11:04:35;;;;;;;55.65;20.85;;;6.50;99.90;;;;;;5076084;28;20064;-74
2022/02/03 11:07:07;;;;;;;51.22;21.73;;;6.70;99.90;;;;;;5075073;28;20075;-74
2022/02/03 11:09:55;;;;;;;53.88;21.20;;;6.90;99.90;;;;;;5074722;28;20556;-74
2022/02/03 11:12:24;;;;;;;48.80;19.80;;;6.80;99.90;;;;;;5075922;28;20152;-74
2022/02/03 11:14:54;;;;;;;52.78;19.42;;;6.70;99.90;;;;;;5075576;28;20450;-74
2022/02/03 11:17:21;;;;;;;47.88;19.27;;;6.70;99.90;;;;;;5075812;28;20078;-73
2022/02/03 11:19:52;;;;;;;53.08;21.15;;;6.60;99.90;;;;;;5075380;28;20049;-74
2022/02/03 11:22:27;;;;;;;53.60;22.52;;;6.80;99.90;;;;;;5074850;28;20055;-73
2022/02/03 11:25:06;;;;;;;59.97;22.05;;;6.80;99.90;;;;;;5074841;28;20500;-74
2022/02/03 11:27:50;;;;;;;57.28;22.30;;;6.90;99.90;;;;;;5074693;28;20050;-74
2022/02/03 11:33:42;;;;;;;53.90;20.73;;;6.80;99.90;;;;;;5063828;28;20040;-74
2022/02/03 11:36:48;;;;;;;53.60;21.55;;;7.00;99.90;;;;;;5075098;28;20060;-73
2022/02/03 11:39:37;;;;;;;51.38;20.65;;;7.00;99.90;;;;;;5074972;28;20055;-75
2022/02/03 11:42:36;;;;;;;47.47;19.52;;;6.90;99.90;;;;;;5075266;28;20139;-74
2022/02/03 11:51:36;;;;;;;45.58;19.33;;;7.00;99.90;;;;;;5032332;28;20502;-75
2022/02/03 11:54:40;;;;;;;43.78;18.75;;;7.00;99.90;;;;;;5074555;28;20052;-74
2022/02/03 11:57:32;;;;;;;43.65;18.90;;;7.10;99.90;;;;;;5073891;28;20503;-76
2022/02/03 12:00:37;;;;;;;44.95;18.63;;;7.00;99.90;;;;;;5074339;28;20053;-74
2022/02/03 12:12:07;;;;;;;46.22;18.27;;;7.30;99.90;;;;;;5074345;28;20497;-73
2022/02/03 12:20:20;;;;;;;37.60;18.15;;;7.50;99.90;;;;;;5071561;28;20053;-76
2022/02/03 12:23:02;;;;;;;40.03;17.67;;;7.50;99.90;;;;;;5073982;28;20053;-74
2022/02/03 12:25:48;;;;;;;39.60;17.70;;;7.60;99.90;;;;;;5073528;28;20408;-74
2022/02/03 12:28:26;;;;;;;34.28;15.75;;;7.70;99.90;;;;;;5073296;28;20052;-74
2022/02/03 12:39:34;;;;;;;31.15;15.15;;;7.70;99.90;;;;;;5072690;28;20601;-78
2022/02/03 12:42:06;;;;;;;37.25;16.58;;;7.80;99.90;;;;;;5072413;28;20482;-76
2022/02/03 12:44:37;;;;;;;31.60;14.88;;;7.80;99.90;;;;;;5072430;28;20063;-74
2022/02/03 12:47:05;;;;;;;33.35;16.20;;;7.90;99.90;;;;;;5072253;28;20091;-74
2022/02/03 12:49:37;;;;;;;33.58;15.93;;;7.90;99.90;;;;;;5072370;28;20060;-74
2022/02/03 12:52:26;;;;;;;28.73;15.23;;;7.90;99.90;;;;;;5072233;28;20710;-74
2022/02/03 12:54:53;;;;;;;31.42;14.63;;;7.90;99.90;;;;;;5072123;28;20132;-74
2022/02/03 12:57:28;;;;;;;30.55;14.63;;;7.90;99.90;;;;;;5072131;28;20060;-75
2022/02/03 13:00:12;;;;;;;26.45;13.57;;;8.00;99.90;;;;;;5072586;28;20123;-74
2022/02/03 13:02:39;;;;;;;26.98;14.05;;;8.00;99.90;;;;;;5072816;28;20061;-75
2022/02/03 13:05:06;;;;;;;27.17;13.57;;;8.00;99.90;;;;;;5072438;28;20052;-74
2022/02/03 13:07:35;;;;;;;23.88;12.77;;;8.00;99.90;;;;;;5072375;28;20044;-75
2022/02/03 13:10:11;;;;;;;28.10;14.13;;;8.10;99.90;;;;;;5072029;28;20052;-74
2022/02/03 13:12:47;;;;;;;27.17;12.77;;;8.10;99.90;;;;;;5072349;28;20060;-75
2022/02/03 13:15:14;;;;;;;22.15;10.98;;;8.10;99.90;;;;;;5071921;28;20475;-75
2022/02/03 13:17:54;;;;;;;31.20;13.50;;;8.10;99.90;;;;;;5072456;28;20091;-75
2022/02/03 13:20:25;;;;;;;25.05;12.82;;;8.00;99.90;;;;;;5072016;28;20699;-75
2022/02/03 13:23:05;;;;;;;28.15;13.52;;;8.10;99.90;;;;;;5071987;28;20460;-79
2022/02/03 13:25:40;;;;;;;26.25;13.00;;;8.00;99.90;;;;;;5071570;28;20057;-75
2022/02/03 13:28:12;;;;;;;27.45;14.07;;;8.10;99.90;;;;;;5071818;28;20067;-76
2022/02/03 13:30:45;;;;;;;25.73;13.50;;;8.10;99.90;;;;;;5071905;28;20049;-75
2022/02/03 13:33:14;;;;;;;29.63;15.25;;;8.20;99.90;;;;;;5071138;28;20496;-76
2022/02/03 13:35:53;;;;;;;30.40;14.02;;;8.20;99.90;;;;;;5071523;28;20106;-75
2022/02/03 13:38:37;;;;;;;28.00;13.95;;;8.10;99.90;;;;;;5071868;28;20408;-75
2022/02/03 13:41:15;;;;;;;28.98;13.90;;;8.10;99.90;;;;;;5071834;28;20048;-76
2022/02/03 13:43:44;;;;;;;25.55;13.68;;;8.20;99.90;;;;;;5071690;28;20485;-73
2022/02/03 13:46:13;;;;;;;27.63;12.95;;;8.20;99.90;;;;;;5071279;28;20131;-74
2022/02/03 13:48:40;;;;;;;28.48;13.63;;;8.10;99.90;;;;;;5071127;28;20420;-73
2022/02/03 13:51:10;;;;;;;25.38;12.98;;;8.00;99.90;;;;;;5071510;28;20055;-74
2022/02/03 13:53:44;;;;;;;28.38;14.43;;;8.10;99.90;;;;;;5071254;28;20102;-73
2022/02/03 14:15:59;;;;;;;26.38;13.45;;;8.20;99.90;;;;;;5071108;28;20059;-74
2022/02/03 14:18:58;;;;;;;23.60;12.45;;;8.20;99.90;;;;;;5070878;28;20058;-73
2022/02/03 14:21:28;;;;;;;27.60;13.13;;;8.30;99.90;;;;;;5070914;28;20497;-73
2022/02/03 14:27:11;;;;;;;21.02;11.52;;;8.30;99.90;;;;;;5070736;28;20124;-73
2022/02/03 14:29:44;;;;;;;21.15;10.95;;;8.30;99.90;;;;;;5070989;28;20056;-73
2022/02/03 14:32:14;;;;;;;18.77;10.48;;;8.20;99.90;;;;;;5071605;28;20079;-73
2022/02/03 14:34:41;;;;;;;20.55;11.48;;;8.20;99.90;;;;;;5071114;28;20062;-73
2022/02/03 14:37:15;;;;;;;20.55;11.05;;;8.30;99.90;;;;;;5070996;28;20455;-73
2022/02/03 14:39:56;;;;;;;21.30;10.00;;;8.30;99.90;;;;;;5071255;28;20509;-73
2022/02/03 14:42:24;;;;;;;17.27;8.77;;;8.30;99.90;;;;;;5071506;28;20055;-73
2022/02/03 14:44:52;;;;;;;14.20;8.40;;;8.30;99.90;;;;;;5074071;28;20125;-73
2022/02/03 14:47:21;;;;;;;14.23;8.30;;;8.30;99.90;;;;;;5074968;28;20055;-73
2022/02/03 14:49:48;;;;;;;14.25;8.07;;;8.30;99.90;;;;;;5074651;28;20045;-74
2022/02/03 14:52:25;;;;;;;13.48;8.13;;;8.30;99.90;;;;;;5074793;28;20494;-73
2022/02/03 15:00:25;;;;;;;16.65;8.50;;;8.30;99.90;;;;;;5075009;28;20066;-73
2022/02/03 15:02:52;;;;;;;13.07;7.70;;;8.30;99.90;;;;;;5074385;28;20142;-73
2022/02/03 15:05:25;;;;;;;13.15;7.35;;;8.30;99.90;;;;;;5074784;28;20073;-74
2022/02/03 15:07:57;;;;;;;16.23;7.68;;;8.30;99.90;;;;;;5074984;28;20056;-74
2022/02/03 15:13:16;;;;;;;11.02;6.93;;;8.20;99.90;;;;;;5075098;28;20137;-77
2022/02/03 15:15:43;;;;;;;11.95;6.53;;;8.20;99.90;;;;;;5074752;28;20056;-73
2022/02/03 15:18:11;;;;;;;12.68;7.05;;;8.20;99.90;;;;;;5074264;28;20097;-73
2022/02/03 15:20:38;;;;;;;10.45;6.05;;;8.20;99.90;;;;;;5074265;28;20056;-76
2022/02/03 15:23:06;;;;;;;11.88;6.60;;;8.20;99.90;;;;;;5074697;28;20051;-73
2022/02/03 15:25:34;;;;;;;12.65;6.40;;;8.20;99.90;;;;;;5074434;28;20052;-73
2022/02/03 15:28:01;;;;;;;13.45;6.75;;;8.20;99.90;;;;;;5074222;28;20057;-73
2022/02/03 15:30:29;;;;;;;10.73;5.75;;;8.20;99.90;;;;;;5073798;28;20048;-74
2022/02/03 15:32:56;;;;;;;10.98;6.25;;;8.20;99.90;;;;;;5074382;28;20095;-74
2022/02/03 15:35:29;;;;;;;10.40;5.75;;;8.20;99.90;;;;;;5074082;28;20412;-74
2022/02/03 15:37:56;;;;;;;15.63;6.57;;;8.20;99.90;;;;;;5074895;28;20049;-74
2022/02/03 15:40:26;;;;;;;9.73;4.50;;;8.30;99.90;;;;;;5074900;28;20078;-74
2022/02/03 15:43:02;;;;;;;7.93;4.28;;;8.30;99.90;;;;;;5073792;28;20056;-74
2022/02/03 15:45:35;;;;;;;8.25;3.75;;;8.20;99.90;;;;;;5073406;28;20064;-73
2022/02/03 15:48:10;;;;;;;9.95;4.03;;;8.30;99.90;;;;;;5073516;28;20052;-75
2022/02/03 15:50:59;;;;;;;8.38;3.90;;;8.20;99.90;;;;;;5073585;28;20052;-74
2022/02/03 15:56:25;;;;;;;6.93;3.78;;;8.20;99.90;;;;;;5074181;28;20519;-74
2022/02/03 16:01:54;;;;;;;9.93;4.43;;;8.20;99.90;;;;;;5074257;28;20189;-74
2022/02/03 16:17:57;;;;;;;9.32;4.60;;;8.10;99.90;;;;;;5072983;28;20040;-73
2022/02/03 16:20:29;;;;;;;8.88;4.68;;;8.10;99.90;;;;;;5073035;28;20080;-73
2022/02/03 16:23:05;;;;;;;8.40;3.88;;;8.10;99.90;;;;;;5073448;28;20314;-73
2022/02/03 16:26:15;;;;;;;6.83;3.80;;;8.10;99.90;;;;;;5072926;28;20067;-73
2022/02/03 16:50:39;;;;;;;9.82;5.35;;;8.10;99.90;;;;;;5072623;28;20424;-74
2022/02/03 16:53:06;;;;;;;13.43;5.80;;;8.00;99.90;;;;;;5072901;28;20048;-74
2022/02/03 16:55:36;;;;;;;9.18;5.30;;;8.00;99.90;;;;;;5072811;28;20094;-74
2022/02/03 16:58:06;;;;;;;12.30;6.55;;;8.00;99.90;;;;;;5072506;28;20427;-74
2022/02/03 17:00:33;;;;;;;19.35;7.55;;;8.00;99.90;;;;;;5073289;28;20522;-74
2022/02/03 17:03:00;;;;;;;15.65;7.53;;;8.00;99.90;;;;;;5072385;28;20135;-73
2022/02/03 17:05:29;;;;;;;13.18;6.57;;;8.00;99.90;;;;;;5071712;28;20080;-74
2022/02/03 17:07:56;;;;;;;13.07;6.78;;;8.00;99.90;;;;;;5071239;28;20044;-74
2022/02/03 17:10:23;;;;;;;12.85;7.03;;;7.90;99.90;;;;;;5072214;28;20147;-74
2022/02/03 17:12:50;;;;;;;13.82;7.93;;;7.90;99.90;;;;;;5072209;28;20091;-74
2022/02/03 17:15:20;;;;;;;13.57;7.75;;;7.90;99.90;;;;;;5073567;28;20097;-73
2022/02/03 17:17:50;;;;;;;13.93;7.47;;;7.90;99.90;;;;;;5072445;28;20056;-74
2022/02/03 17:20:17;;;;;;;13.10;7.20;;;7.90;99.90;;;;;;5072797;28;20052;-74
2022/02/03 17:22:49;;;;;;;10.90;6.25;;;7.80;99.90;;;;;;5072177;28;20048;-75
2022/02/03 17:25:21;;;;;;;13.48;6.05;;;7.70;99.90;;;;;;5072675;28;20056;-74
2022/02/03 17:27:55;;;;;;;13.63;7.13;;;7.80;99.90;;;;;;5071904;28;20080;-74
2022/02/03 17:30:28;;;;;;;11.93;7.15;;;7.80;99.90;;;;;;5072519;28;20066;-74
2022/02/03 18:02:57;;;;;;;14.15;7.65;;;7.80;99.90;;;;;;5072822;28;20430;-74
2022/02/03 18:09:07;;;;;;;18.80;10.48;;;7.80;99.90;;;;;;5072674;28;20055;-74
2022/02/03 18:11:54;;;;;;;14.15;7.85;;;7.70;99.90;;;;;;5072076;28;20048;-74
2022/02/03 18:17:34;;;;;;;13.45;7.78;;;7.70;99.90;;;;;;5072587;28;20419;-74
2022/02/03 18:31:23;;;;;;;14.10;8.23;;;7.70;99.90;;;;;;5076489;28;20125;-74
2022/02/03 18:34:10;;;;;;;12.80;7.15;;;7.70;99.90;;;;;;5076470;28;20125;-75
2022/02/03 18:37:04;;;;;;;13.80;6.90;;;7.80;99.90;;;;;;5076716;28;20078;-75
2022/02/03 18:50:39;;;;;;;12.30;7.15;;;7.70;99.90;;;;;;5076001;28;20060;-74
2022/02/03 18:53:14;;;;;;;15.13;7.15;;;7.70;99.90;;;;;;5075718;28;20056;-74
2022/02/03 18:55:54;;;;;;;12.82;6.82;;;7.70;99.90;;;;;;5076143;28;20071;-75
2022/02/03 18:58:35;;;;;;;14.60;7.35;;;7.70;99.90;;;;;;5075563;28;20416;-74
2022/02/03 19:01:26;;;;;;;12.35;6.90;;;7.80;99.90;;;;;;5076321;28;20109;-74
2022/02/03 19:26:45;;;;;;;13.75;8.50;;;7.70;99.90;;;;;;5018251;28;20465;-75
2022/02/03 20:04:59;;;;;;;13.45;7.50;;;7.80;99.90;;;;;;5063000;28;20508;-74
2022/02/03 20:07:34;;;;;;;16.35;8.35;;;7.70;99.90;;;;;;5074330;28;20052;-74
2022/02/03 20:10:17;;;;;;;15.43;8.77;;;7.70;99.90;;;;;;5074443;28;20048;-75
2022/02/03 20:12:44;;;;;;;16.05;8.32;;;7.70;99.90;;;;;;5074875;28;20052;-75
2022/02/03 20:15:12;;;;;;;14.13;8.50;;;7.70;99.90;;;;;;5074206;28;20136;-75
2022/02/03 20:17:40;;;;;;;13.98;7.90;;;7.60;99.90;;;;;;5074088;28;20045;-75
2022/02/03 20:20:08;;;;;;;16.75;8.95;;;7.60;99.90;;;;;;5074229;28;20080;-75
2022/02/03 20:22:39;;;;;;;13.70;8.27;;;7.60;99.90;;;;;;5074569;28;20127;-76
2022/02/03 20:25:06;;;;;;;14.00;8.00;;;7.60;99.90;;;;;;5074562;28;20488;-73
2022/02/03 20:27:34;;;;;;;15.10;8.98;;;7.60;99.90;;;;;;5073961;28;20062;-74
2022/02/03 20:30:01;;;;;;;13.93;8.10;;;7.60;99.90;;;;;;5074367;28;20044;-74
2022/02/03 20:32:29;;;;;;;14.45;8.55;;;7.60;99.90;;;;;;5074294;28;20516;-74
2022/02/03 20:34:56;;;;;;;14.60;8.57;;;7.60;99.90;;;;;;5073917;28;20503;-76
2022/02/03 20:37:24;;;;;;;15.23;8.10;;;7.60;99.90;;;;;;5073714;28;20068;-78
2022/02/03 20:39:52;;;;;;;13.43;8.45;;;7.60;99.90;;;;;;5073614;28;20052;-75
2022/02/03 20:42:19;;;;;;;14.32;8.75;;;7.60;99.90;;;;;;5073228;28;20235;-75
2022/02/03 20:44:49;;;;;;;12.77;7.63;;;7.50;99.90;;;;;;5073651;28;20132;-78
2022/02/03 20:47:16;;;;;;;15.18;8.27;;;7.60;99.90;;;;;;5073876;28;20127;-75
2022/02/03 20:49:43;;;;;;;15.25;8.65;;;7.60;99.90;;;;;;5073672;28;20044;-74
2022/02/03 20:52:10;;;;;;;15.57;8.98;;;7.50;99.90;;;;;;5073853;28;20084;-75
2022/02/03 20:54:37;;;;;;;16.98;9.30;;;7.50;99.90;;;;;;5073529;28;20053;-75
2022/02/03 20:57:06;;;;;;;15.07;8.55;;;7.50;99.90;;;;;;5073450;28;20135;-73
2022/02/03 20:59:52;;;;;;;13.48;7.65;;;7.60;99.90;;;;;;5073827;28;20225;-74
2022/02/03 21:02:28;;;;;;;12.70;7.53;;;7.50;99.90;;;;;;5073593;28;20500;-75
2022/02/03 21:05:05;;;;;;;11.38;6.40;;;7.50;99.90;;;;;;5074013;28;20048;-76
2022/02/03 21:07:32;;;;;;;11.15;6.32;;;7.60;99.90;;;;;;5073869;28;20420;-74
2022/02/03 21:10:00;;;;;;;11.15;6.70;;;7.60;99.90;;;;;;5073082;28;20135;-75
2022/02/03 21:12:54;;;;;;;13.30;6.88;;;7.60;99.90;;;;;;5072989;28;20051;-74
2022/02/03 21:15:25;;;;;;;9.80;6.03;;;7.60;99.90;;;;;;5072324;28;20052;-75
2022/02/03 21:17:53;;;;;;;12.80;5.95;;;7.60;99.90;;;;;;5072513;28;20063;-75
2022/02/03 21:20:22;;;;;;;11.75;6.38;;;7.60;99.90;;;;;;5072554;28;20110;-75
2022/02/03 21:22:49;;;;;;;10.32;6.05;;;7.70;99.90;;;;;;5072354;28;20102;-74